createdAt,value
2022-07-30T00:01:50.275Z,4.72
2022-07-30T00:04:18.907Z,4.10
2022-07-30T00:06:46.682Z,4.60
2022-07-30T00:09:14.485Z,4.35
2022-07-30T00:14:10.668Z,4.28
2022-07-30T00:16:39.226Z,3.97
2022-07-30T00:19:07.094Z,4.88
2022-07-30T00:21:39.134Z,4.90
2022-07-30T00:24:08.800Z,5.10
2022-07-30T00:26:36.880Z,7.15
2022-07-30T00:31:33.695Z,7.60
2022-07-30T00:34:01.163Z,8.68
2022-07-30T00:36:29.004Z,8.05
2022-07-30T00:38:57.051Z,8.20
2022-07-30T00:41:25.636Z,9.77
2022-07-30T00:43:53.555Z,8.80
2022-07-30T00:46:21.966Z,8.55
2022-07-30T00:48:50.408Z,9.93
2022-07-30T00:51:18.545Z,8.98
2022-07-30T00:53:46.103Z,9.05
2022-07-30T00:56:15.454Z,8.93
2022-07-30T00:58:44.523Z,9.80
2022-07-30T01:01:12.654Z,9.23
2022-07-30T01:03:41.029Z,9.30
2022-07-30T01:06:14.146Z,9.23
2022-07-30T01:08:43.598Z,9.05
2022-07-30T01:11:12.570Z,8.70
2022-07-30T01:13:45.037Z,7.43
2022-07-30T01:16:13.178Z,7.85
2022-07-30T01:19:01.474Z,7.25
2022-07-30T01:21:36.675Z,7.90
2022-07-30T01:24:34.046Z,7.22
2022-07-30T01:29:34.613Z,6.78
2022-07-30T01:32:07.372Z,6.55
2022-07-30T01:34:37.514Z,5.95
2022-07-30T01:37:09.119Z,5.80
2022-07-30T01:39:38.669Z,5.22
2022-07-30T01:42:09.198Z,5.40
2022-07-30T01:44:43.157Z,4.93
2022-07-30T01:47:13.345Z,5.13
2022-07-30T01:49:42.349Z,4.85
2022-07-30T01:52:10.777Z,5.15
2022-07-30T01:54:40.523Z,4.63
2022-07-30T01:57:09.807Z,4.15
2022-07-30T01:59:43.431Z,3.58
2022-07-30T02:02:12.937Z,3.60
2022-07-30T02:04:46.287Z,3.83
2022-07-30T02:07:39.010Z,3.38
2022-07-30T02:10:32.670Z,3.20
2022-07-30T02:13:04.809Z,3.08
2022-07-30T02:15:38.908Z,2.88
2022-07-30T02:18:28.011Z,2.80
2022-07-30T02:21:07.373Z,2.83
2022-07-30T02:23:44.629Z,3.10
2022-07-30T02:26:21.092Z,2.90
2022-07-30T02:28:52.802Z,2.85
2022-07-30T02:31:23.512Z,2.50
2022-07-30T02:33:56.671Z,2.38
2022-07-30T02:36:27.813Z,3.08
2022-07-30T02:38:58.559Z,2.78
2022-07-30T02:41:29.687Z,2.60
2022-07-30T02:44:00.503Z,2.88
2022-07-30T02:46:29.766Z,2.80
2022-07-30T02:49:18.777Z,2.57
2022-07-30T02:51:48.362Z,2.40
2022-07-30T02:54:18.545Z,2.53
2022-07-30T02:56:51.500Z,2.47
2022-07-30T02:59:23.178Z,2.20
2022-07-30T03:01:52.247Z,2.35
2022-07-30T03:04:22.062Z,2.22
2022-07-30T03:06:50.071Z,2.13
2022-07-30T03:09:18.616Z,2.10
2022-07-30T03:11:49.439Z,2.03
2022-07-30T03:14:17.623Z,2.20
2022-07-30T03:16:51.861Z,2.22
2022-07-30T03:19:23.230Z,2.17
2022-07-30T03:21:53.934Z,2.53
2022-07-30T03:24:26.205Z,2.45
2022-07-30T03:26:55.547Z,2.22
2022-07-30T03:29:28.915Z,2.33
2022-07-30T03:31:57.875Z,2.40
2022-07-30T03:34:28.755Z,2.45
2022-07-30T03:37:30.259Z,2.25
2022-07-30T03:39:59.730Z,3.00
2022-07-30T03:42:28.590Z,3.45
2022-07-30T03:44:57.516Z,3.38
2022-07-30T03:47:27.091Z,3.67
2022-07-30T03:49:56.179Z,4.00
2022-07-30T03:52:23.888Z,4.32
2022-07-30T03:57:48.156Z,4.35
2022-07-30T04:00:18.279Z,4.40
2022-07-30T04:02:50.778Z,4.70
2022-07-30T04:05:41.484Z,4.50
2022-07-30T04:10:40.206Z,4.95
2022-07-30T04:13:16.920Z,4.70
2022-07-30T04:16:39.756Z,4.90
2022-07-30T04:19:19.261Z,4.65
2022-07-30T04:21:49.560Z,5.20
2022-07-30T04:24:19.038Z,4.57
2022-07-30T04:26:48.954Z,4.88
2022-07-30T04:29:24.524Z,4.97
2022-07-30T04:31:55.093Z,4.97
2022-07-30T04:34:34.820Z,4.07
2022-07-30T04:37:05.626Z,4.57
2022-07-30T04:39:33.766Z,4.47
2022-07-30T04:42:02.427Z,4.60
2022-07-30T04:44:39.542Z,4.50
2022-07-30T04:47:25.964Z,4.60
2022-07-30T04:50:13.564Z,4.28
2022-07-30T04:52:43.266Z,4.25
2022-07-30T04:55:14.613Z,4.70
2022-07-30T04:57:48.628Z,4.53
2022-07-30T05:00:17.624Z,4.50
2022-07-30T05:02:47.222Z,4.38
2022-07-30T05:05:17.715Z,4.40
2022-07-30T05:10:38.145Z,4.30
2022-07-30T05:13:11.738Z,4.55
2022-07-30T05:15:44.870Z,4.90
2022-07-30T05:18:14.379Z,4.70
2022-07-30T05:20:45.448Z,5.20
2022-07-30T05:23:34.005Z,4.85
2022-07-30T05:26:22.401Z,4.78
2022-07-30T05:28:57.279Z,5.40
2022-07-30T05:31:51.163Z,5.03
2022-07-30T05:34:20.551Z,4.47
2022-07-30T05:36:48.458Z,5.20
2022-07-30T05:39:18.652Z,4.85
2022-07-30T05:42:04.972Z,5.10
2022-07-30T05:44:47.001Z,4.95
2022-07-30T05:47:14.717Z,4.88
2022-07-30T05:49:42.401Z,4.88
2022-07-30T05:52:15.375Z,4.85
2022-07-30T05:54:44.387Z,4.32
2022-07-30T05:57:31.827Z,4.70
2022-07-30T06:00:00.801Z,5.05
2022-07-30T06:02:45.007Z,4.97
2022-07-30T06:05:38.995Z,4.50
2022-07-30T06:08:07.821Z,5.22
2022-07-30T06:10:36.043Z,4.38
2022-07-30T06:13:04.156Z,4.47
2022-07-30T06:15:32.534Z,4.57
2022-07-30T06:18:02.334Z,4.68
2022-07-30T06:20:54.916Z,4.75
2022-07-30T06:26:10.891Z,5.32
2022-07-30T06:28:41.135Z,5.28
2022-07-30T06:31:29.003Z,5.45
2022-07-30T06:36:26.567Z,4.80
2022-07-30T06:39:02.256Z,4.78
2022-07-30T06:41:44.318Z,4.88
2022-07-30T06:44:16.203Z,4.93
2022-07-30T06:47:07.486Z,4.70
2022-07-30T06:49:37.690Z,5.30
2022-07-30T06:52:06.892Z,5.07
2022-07-30T06:54:35.484Z,5.30
2022-07-30T06:57:13.980Z,4.70
2022-07-30T06:59:55.986Z,5.45
2022-07-30T07:02:42.777Z,5.15
2022-07-30T07:05:13.901Z,4.63
2022-07-30T07:07:56.536Z,4.80
2022-07-30T07:10:28.014Z,4.90
2022-07-30T07:13:05.154Z,4.70
2022-07-30T07:15:37.688Z,4.80
2022-07-30T07:18:09.948Z,5.32
2022-07-30T07:20:40.099Z,5.03
2022-07-30T07:23:12.027Z,5.03
2022-07-30T07:25:41.763Z,4.78
2022-07-30T07:28:12.175Z,4.45
2022-07-30T07:30:44.461Z,4.05
2022-07-30T07:33:15.530Z,3.63
2022-07-30T07:35:49.240Z,3.45
2022-07-30T07:38:30.923Z,3.65
2022-07-30T07:40:59.673Z,3.53
2022-07-30T07:43:29.173Z,3.38
2022-07-30T07:45:59.690Z,3.65
2022-07-30T07:48:30.895Z,3.25
2022-07-30T07:51:09.623Z,3.17
2022-07-30T07:53:38.482Z,3.88
2022-07-30T07:56:31.197Z,3.42
2022-07-30T07:59:01.269Z,3.30
2022-07-30T08:01:30.375Z,2.95
2022-07-30T08:04:24.439Z,2.85
2022-07-30T08:07:19.705Z,2.95
2022-07-30T08:10:16.284Z,2.50
2022-07-30T08:13:04.292Z,2.60
2022-07-30T08:15:53.144Z,2.45
2022-07-30T08:18:29.735Z,2.65
2022-07-30T08:21:19.736Z,2.53
2022-07-30T08:23:48.015Z,2.40
2022-07-30T08:26:18.021Z,2.17
2022-07-30T08:28:45.917Z,2.22
2022-07-30T08:31:14.277Z,1.95
2022-07-30T08:33:42.176Z,2.05
2022-07-30T08:36:10.331Z,2.10
2022-07-30T08:38:39.876Z,2.00
2022-07-30T08:41:08.839Z,1.98
2022-07-30T08:43:37.647Z,1.85
2022-07-30T08:46:14.284Z,2.05
2022-07-30T08:48:55.070Z,1.83
2022-07-30T08:51:23.782Z,1.80
2022-07-30T08:54:30.035Z,2.03
2022-07-30T08:59:59.523Z,1.77
2022-07-30T09:02:15.040Z,1.60
2022-07-30T09:05:00.913Z,1.80
2022-07-30T09:07:29.456Z,1.95
2022-07-30T09:11:26.470Z,1.95
2022-07-30T09:13:54.393Z,2.10
2022-07-30T09:16:27.411Z,2.10
2022-07-30T09:18:58.102Z,2.20
2022-07-30T09:21:29.180Z,1.98
2022-07-30T09:24:48.581Z,2.10
2022-07-30T09:27:51.309Z,2.22
2022-07-30T09:30:52.856Z,1.85
2022-07-30T09:33:47.512Z,2.08
2022-07-30T09:36:34.364Z,1.80
2022-07-30T09:39:42.502Z,1.95
2022-07-30T09:42:29.060Z,1.83
2022-07-30T09:45:08.300Z,1.63
2022-07-30T09:47:42.868Z,1.88
2022-07-30T09:50:13.476Z,1.70
2022-07-30T09:53:11.884Z,1.67
2022-07-30T09:55:43.141Z,0.98
2022-07-30T09:58:16.610Z,1.00
2022-07-30T10:00:59.604Z,1.00
2022-07-30T10:03:47.896Z,0.85
2022-07-30T10:06:54.843Z,0.95
2022-07-30T10:09:37.471Z,0.70
2022-07-30T10:12:11.272Z,0.50
2022-07-30T10:14:45.759Z,0.85
2022-07-30T10:17:17.521Z,0.80
2022-07-30T10:20:18.414Z,0.70
2022-07-30T10:23:09.219Z,0.60
2022-07-30T10:25:48.946Z,0.60
2022-07-30T10:28:43.523Z,0.50
2022-07-30T10:31:49.412Z,0.77
2022-07-30T10:34:01.246Z,0.50
2022-07-30T10:36:29.959Z,0.65
2022-07-30T10:38:57.914Z,0.50
2022-07-30T10:41:42.802Z,0.50
2022-07-30T10:44:49.412Z,0.57
2022-07-30T10:47:19.265Z,0.60
2022-07-30T10:50:11.833Z,0.60
2022-07-30T10:52:50.622Z,0.80
2022-07-30T10:55:37.218Z,0.80
2022-07-30T10:58:07.031Z,0.60
2022-07-30T11:00:55.915Z,0.68
2022-07-30T11:03:41.042Z,0.90
2022-07-30T11:06:15.844Z,0.90
2022-07-30T11:08:48.039Z,0.98
2022-07-30T11:12:01.496Z,0.90
2022-07-30T11:14:10.704Z,0.80
2022-07-30T11:16:39.389Z,0.80
2022-07-30T11:19:55.317Z,0.77
2022-07-30T11:22:38.947Z,0.88
2022-07-30T11:25:50.271Z,0.80
2022-07-30T11:28:40.023Z,0.80
2022-07-30T11:31:54.936Z,1.15
2022-07-30T11:34:19.618Z,1.00
2022-07-30T11:37:18.390Z,1.10
2022-07-30T11:40:06.095Z,1.10
2022-07-30T11:42:39.371Z,1.30
2022-07-30T11:45:17.169Z,1.17
2022-07-30T11:47:47.981Z,1.20
2022-07-30T11:50:23.901Z,1.45
2022-07-30T11:53:12.900Z,1.00
2022-07-30T11:55:44.114Z,1.17
2022-07-30T11:58:26.723Z,1.30
2022-07-30T12:00:57.614Z,1.27
2022-07-30T12:03:30.081Z,1.20
2022-07-30T12:06:17.975Z,1.23
2022-07-30T12:08:58.217Z,1.30
2022-07-30T12:11:33.368Z,1.30
2022-07-30T12:14:02.209Z,1.08
2022-07-30T12:16:31.779Z,1.40
2022-07-30T12:19:06.108Z,1.00
2022-07-30T12:21:34.626Z,1.05
2022-07-30T12:24:10.332Z,1.20
2022-07-30T12:26:38.099Z,1.27
2022-07-30T12:29:10.172Z,1.10
2022-07-30T12:31:40.317Z,1.20
2022-07-30T12:34:26.057Z,1.40
2022-07-30T12:36:54.626Z,1.25
2022-07-30T12:39:24.740Z,1.30
2022-07-30T12:41:56.197Z,1.73
2022-07-30T12:44:42.197Z,1.50
2022-07-30T12:47:23.986Z,1.40
2022-07-30T12:49:53.736Z,1.40
2022-07-30T12:52:36.156Z,1.60
2022-07-30T12:55:07.357Z,1.33
2022-07-30T12:57:55.676Z,1.30
2022-07-30T13:00:25.742Z,1.55
2022-07-30T13:02:54.959Z,1.83
2022-07-30T13:06:02.117Z,1.88
2022-07-30T13:08:58.357Z,1.70
2022-07-30T13:11:37.699Z,1.60
2022-07-30T13:14:05.641Z,1.90
2022-07-30T13:16:36.144Z,1.33
2022-07-30T13:19:05.590Z,1.50
2022-07-30T13:21:35.407Z,1.50
2022-07-30T13:24:04.334Z,1.80
2022-07-30T13:26:33.986Z,2.00
2022-07-30T13:29:03.499Z,1.80
2022-07-30T13:31:42.944Z,1.65
2022-07-30T13:34:41.078Z,1.50
2022-07-30T13:37:13.181Z,1.50
2022-07-30T13:39:43.924Z,2.28
2022-07-30T13:42:11.559Z,2.15
2022-07-30T13:44:39.242Z,2.17
2022-07-30T13:49:39.122Z,2.40
2022-07-30T13:52:06.779Z,3.03
2022-07-30T13:57:02.573Z,2.20
2022-07-30T13:59:30.447Z,2.25
2022-07-30T14:01:58.338Z,2.20
2022-07-30T14:04:26.066Z,2.15
2022-07-30T14:06:53.837Z,1.83
2022-07-30T14:09:22.522Z,2.00
2022-07-30T14:11:50.370Z,2.10
2022-07-30T14:19:23.152Z,2.00
2022-07-30T14:21:53.993Z,2.35
2022-07-30T14:24:24.617Z,2.10
2022-07-30T14:26:57.391Z,2.35
2022-07-30T14:29:27.226Z,2.33
2022-07-30T14:31:56.089Z,2.35
2022-07-30T14:34:24.084Z,2.10
2022-07-30T14:36:51.731Z,2.45
2022-07-30T14:39:20.685Z,2.40
2022-07-30T14:41:48.920Z,2.03
2022-07-30T14:44:24.422Z,2.17
2022-07-30T14:49:24.620Z,2.38
2022-07-30T14:51:53.383Z,2.72
2022-07-30T14:56:50.403Z,2.55
2022-07-30T14:59:19.687Z,2.20
2022-07-30T15:04:17.186Z,1.98
2022-07-30T15:06:45.087Z,1.73
2022-07-30T15:09:13.041Z,1.98
2022-07-30T15:12:04.387Z,2.47
2022-07-30T15:14:32.145Z,2.30
2022-07-30T15:17:04.139Z,2.28
2022-07-30T15:19:33.116Z,2.10
2022-07-30T15:22:02.822Z,2.10
2022-07-30T15:24:32.495Z,1.98
2022-07-30T15:27:00.322Z,2.05
2022-07-30T15:29:30.239Z,2.85
2022-07-30T15:32:01.011Z,2.28
2022-07-30T15:34:34.581Z,2.13
2022-07-30T15:37:03.418Z,2.47
2022-07-30T15:39:33.092Z,2.50
2022-07-30T15:42:02.343Z,2.40
2022-07-30T15:44:30.842Z,2.03
2022-07-30T15:46:59.406Z,1.83
2022-07-30T15:49:28.109Z,2.72
2022-07-30T15:51:56.080Z,2.42
2022-07-30T15:54:25.069Z,2.70
2022-07-30T15:56:54.150Z,2.65
2022-07-30T15:59:29.969Z,2.92
2022-07-30T16:01:58.616Z,2.85
2022-07-30T16:04:31.699Z,3.10
2022-07-30T16:07:03.415Z,3.25
2022-07-30T16:09:31.144Z,2.72
2022-07-30T16:14:27.351Z,2.35
2022-07-30T16:20:33.559Z,3.22
2022-07-30T16:23:10.409Z,1.98
2022-07-30T16:25:40.672Z,2.83
2022-07-30T16:28:08.311Z,3.75
2022-07-30T16:44:50.303Z,3.80
2022-07-30T16:49:45.390Z,3.28
2022-07-30T16:52:13.529Z,3.90
2022-07-30T16:54:41.169Z,3.50
2022-07-30T16:57:10.732Z,3.55
2022-07-30T16:59:43.555Z,3.47
2022-07-30T17:02:12.574Z,3.30
2022-07-30T17:04:41.567Z,3.10
2022-07-30T17:07:09.334Z,3.03
2022-07-30T17:09:37.148Z,2.97
2022-07-30T17:12:12.281Z,3.65
2022-07-30T17:14:43.479Z,3.70
2022-07-30T17:17:14.551Z,3.80
2022-07-30T17:19:43.571Z,3.20
2022-07-30T17:22:12.038Z,3.70
2022-07-30T17:24:40.190Z,3.40
2022-07-30T17:27:08.333Z,3.35
2022-07-30T17:29:38.769Z,3.35
2022-07-30T17:34:53.073Z,3.65
2022-07-30T17:37:21.783Z,3.33
2022-07-30T17:40:26.912Z,3.30
2022-07-30T17:42:39.871Z,3.80
2022-07-30T17:45:08.544Z,3.83
2022-07-30T17:47:40.766Z,3.55
2022-07-30T17:50:10.628Z,4.50
2022-07-30T17:52:41.172Z,3.28
2022-07-30T17:55:11.464Z,4.05
2022-07-30T17:57:39.971Z,5.15
2022-07-30T18:00:09.358Z,4.00
2022-07-30T18:02:38.020Z,4.05
2022-07-30T18:05:06.361Z,3.95
2022-07-30T18:07:35.623Z,4.70
2022-07-30T18:10:04.024Z,4.05
2022-07-30T18:12:31.744Z,4.03
2022-07-30T18:15:01.525Z,4.47
2022-07-30T18:17:29.690Z,3.95
2022-07-30T18:19:57.441Z,4.53
2022-07-30T18:22:29.240Z,4.50
2022-07-30T18:25:00.343Z,5.53
2022-07-30T18:27:28.428Z,4.60
2022-07-30T18:32:24.750Z,5.20
2022-07-30T18:34:52.534Z,4.47
2022-07-30T18:39:55.007Z,4.43
2022-07-30T18:42:27.628Z,4.78
2022-07-30T18:45:05.791Z,4.63
2022-07-30T18:47:34.006Z,4.57
2022-07-30T18:50:02.073Z,4.68
2022-07-30T18:52:29.736Z,4.82
2022-07-30T18:54:57.446Z,4.80
2022-07-30T18:59:53.088Z,5.53
2022-07-30T19:04:48.210Z,5.22
2022-07-30T19:07:15.870Z,5.40
2022-07-30T19:09:43.806Z,6.75
2022-07-30T19:14:40.750Z,6.53
2022-07-30T19:17:14.085Z,5.05
2022-07-30T19:19:43.710Z,5.93
2022-07-30T19:22:13.784Z,6.60
2022-07-30T19:24:41.492Z,5.22
2022-07-30T19:27:13.988Z,5.22
2022-07-30T19:29:42.285Z,5.22
2022-07-30T19:34:37.447Z,5.00
2022-07-30T19:37:05.069Z,4.72
2022-07-30T19:39:35.069Z,5.07
2022-07-30T19:42:04.026Z,5.22
2022-07-30T19:44:32.517Z,4.63
2022-07-30T19:49:29.528Z,5.50
2022-07-30T19:52:10.041Z,5.20
2022-07-30T19:54:46.147Z,4.50
2022-07-30T19:57:14.695Z,4.43
2022-07-30T19:59:59.892Z,4.57
2022-07-30T20:02:40.443Z,4.63
2022-07-30T20:05:11.143Z,4.38
2022-07-30T20:07:40.045Z,4.05
2022-07-30T20:10:11.221Z,3.92
2022-07-30T20:12:42.139Z,3.58
2022-07-30T20:15:13.976Z,3.90
2022-07-30T20:17:42.866Z,3.78
2022-07-30T20:20:11.643Z,3.50
2022-07-30T20:22:39.435Z,4.40
2022-07-30T20:25:09.558Z,3.40
2022-07-30T20:27:40.501Z,3.40
2022-07-30T20:30:10.378Z,3.03
2022-07-30T20:32:43.537Z,3.40
2022-07-30T20:35:14.577Z,3.55
2022-07-30T20:37:55.590Z,3.70
2022-07-30T20:40:26.804Z,3.72
2022-07-30T20:42:55.375Z,3.17
2022-07-30T20:45:24.920Z,3.72
2022-07-30T20:47:57.477Z,3.42
2022-07-30T20:50:30.385Z,3.25
2022-07-30T20:52:59.961Z,3.55
2022-07-30T20:55:28.970Z,3.72
2022-07-30T20:58:08.898Z,3.80
2022-07-30T21:00:49.898Z,3.80
2022-07-30T21:03:22.397Z,3.40
2022-07-30T21:05:51.171Z,3.75
2022-07-30T21:08:21.369Z,3.28
2022-07-30T21:10:55.211Z,3.17
2022-07-30T21:13:24.939Z,3.17
2022-07-30T21:16:01.977Z,3.25
2022-07-30T21:18:31.790Z,3.60
2022-07-30T21:21:05.444Z,3.03
2022-07-30T21:23:34.530Z,3.05
2022-07-30T21:26:13.284Z,3.10
2022-07-30T21:28:43.146Z,3.67
2022-07-30T21:31:14.650Z,3.90
2022-07-30T21:33:44.142Z,3.53
2022-07-30T21:36:13.344Z,3.70
2022-07-30T21:38:44.233Z,3.85
2022-07-30T21:41:13.823Z,3.78
2022-07-30T21:43:44.115Z,3.65
2022-07-30T21:46:12.992Z,3.55
2022-07-30T21:48:43.311Z,3.53
2022-07-30T21:51:12.137Z,3.83
2022-07-30T21:53:44.822Z,3.60
2022-07-30T21:56:15.872Z,3.85
2022-07-30T21:58:45.143Z,3.97
2022-07-30T22:01:18.060Z,3.45
2022-07-30T22:04:07.821Z,3.80
2022-07-30T22:06:38.226Z,3.20
2022-07-30T22:09:19.264Z,3.08
2022-07-30T22:11:56.697Z,2.80
2022-07-30T22:14:29.278Z,3.00
2022-07-30T22:16:57.483Z,3.08
2022-07-30T22:19:26.072Z,3.15
2022-07-30T22:21:53.848Z,3.05
2022-07-30T22:24:29.329Z,3.60
2022-07-30T22:27:10.694Z,3.20
2022-07-30T22:29:43.471Z,3.28
2022-07-30T22:32:12.216Z,3.42
2022-07-30T22:34:40.553Z,3.13
2022-07-30T22:37:12.459Z,3.15
2022-07-30T22:39:50.182Z,3.42
2022-07-30T22:42:24.418Z,3.80
2022-07-30T22:44:55.491Z,3.90
2022-07-30T22:47:50.613Z,3.60
2022-07-30T22:50:12.080Z,3.95
2022-07-30T22:52:52.615Z,3.72
2022-07-30T22:55:27.335Z,4.15
2022-07-30T22:57:55.828Z,3.53
2022-07-30T23:00:27.702Z,3.75
2022-07-30T23:02:56.957Z,3.70
2022-07-30T23:05:25.579Z,3.67
2022-07-30T23:07:53.988Z,3.67
2022-07-30T23:10:21.861Z,3.90
2022-07-30T23:12:52.974Z,3.83
2022-07-30T23:15:22.476Z,4.05
2022-07-30T23:17:50.652Z,4.20
2022-07-30T23:20:20.670Z,3.88
2022-07-30T23:22:49.079Z,3.50
2022-07-30T23:25:17.417Z,3.97
2022-07-30T23:27:46.843Z,3.90
2022-07-30T23:30:15.144Z,3.35
2022-07-30T23:32:43.100Z,3.55
2022-07-30T23:35:11.750Z,3.85
2022-07-30T23:40:19.914Z,3.45
2022-07-30T23:42:50.883Z,3.75
2022-07-30T23:45:19.100Z,3.40
2022-07-30T23:48:00.943Z,3.20
2022-07-30T23:50:33.367Z,3.28
2022-07-30T23:53:02.985Z,3.10
2022-07-30T23:55:32.000Z,2.97
2022-07-30T23:58:00.354Z,2.83
